Time;durP1;ratioP1;P1;durP2;ratioP2;P2;SDS_P1;SDS_P2;PMS_P1;PMS_P2;Temp;Humidity;BMP_temperature;BMP_pressure;BME280_temperature;BME280_humidity;BME280_pressure;Samples;Min_cycle;Max_cycle;Signal;HPM_P1;HPM_P2
2023/06/27 00:00:40;;;;;;;6.05;3.22;;;;;;;17.18;67.28;101824.75;5057388;28;20486;-70
2023/06/27 00:03:05;;;;;;;11.48;3.53;;;;;;;17.17;66.85;101827.50;5057866;28;20028;-70
2023/06/27 00:05:31;;;;;;;6.57;3.30;;;;;;;17.14;66.95;101819.66;5061235;28;20047;-71
2023/06/27 00:07:57;;;;;;;8.50;3.28;;;;;;;17.14;67.16;101825.03;5058884;28;20275;-70
2023/06/27 00:10:22;;;;;;;6.30;3.33;;;;;;;17.12;66.61;101824.25;5059444;28;20033;-69
2023/06/27 00:12:48;;;;;;;7.90;3.70;;;;;;;17.04;66.94;101819.34;5055401;28;20047;-72
2023/06/27 00:15:13;;;;;;;9.88;3.55;;;;;;;17.04;67.09;101813.09;5055409;28;20482;-71
2023/06/27 00:17:40;;;;;;;5.85;3.22;;;;;;;17.03;67.29;101822.16;5059624;28;20036;-69
2023/06/27 00:20:09;;;;;;;6.78;3.20;;;;;;;16.98;67.54;101814.38;5061275;28;20070;-69
2023/06/27 00:22:40;;;;;;;10.75;3.50;;;;;;;16.94;67.79;101815.53;5057983;28;20031;-69
2023/06/27 00:25:07;;;;;;;7.28;3.30;;;;;;;16.91;67.80;101813.00;5053102;28;20039;-70
2023/06/27 00:27:33;;;;;;;7.60;3.10;;;;;;;16.86;67.53;101815.13;5059846;28;20033;-70
2023/06/27 00:29:59;;;;;;;5.75;3.33;;;;;;;16.86;68.33;101821.38;5055650;28;20534;-68
2023/06/27 00:32:24;;;;;;;6.75;3.28;;;;;;;16.81;67.77;101823.47;5056753;28;20483;-71
2023/06/27 00:34:50;;;;;;;6.22;3.35;;;;;;;16.82;68.62;101829.72;5058012;28;20353;-70
2023/06/27 00:37:15;;;;;;;5.90;3.40;;;;;;;16.66;68.47;101816.31;5055718;28;20115;-70
2023/06/27 00:39:41;;;;;;;7.57;3.70;;;;;;;16.57;69.05;101817.75;5059957;28;20021;-71
2023/06/27 00:42:06;;;;;;;8.95;3.88;;;;;;;16.54;68.84;101814.38;5055906;28;20540;-69
2023/06/27 00:44:32;;;;;;;6.38;3.90;;;;;;;16.47;68.79;101813.00;5059380;28;20062;-69
2023/06/27 00:46:58;;;;;;;6.20;3.40;;;;;;;16.44;69.31;101814.06;5055798;28;20346;-70
2023/06/27 00:49:23;;;;;;;6.10;3.58;;;;;;;16.44;68.65;101808.69;5055468;28;20032;-68
2023/06/27 00:51:51;;;;;;;8.95;3.58;;;;;;;16.44;69.52;101814.94;5052740;28;20021;-70
2023/06/27 00:54:17;;;;;;;4.35;3.20;;;;;;;16.33;69.97;101817.38;5057055;28;20078;-68
2023/06/27 00:56:44;;;;;;;6.40;3.47;;;;;;;16.38;70.22;101815.28;5054780;28;20032;-70
2023/06/27 00:59:11;;;;;;;8.13;3.53;;;;;;;16.32;70.27;101817.47;5056062;28;20121;-70
2023/06/27 01:01:37;;;;;;;9.45;3.97;;;;;;;16.33;70.25;101814.69;5051386;28;20363;-69
2023/06/27 01:04:03;;;;;;;6.93;3.30;;;;;;;16.30;69.43;101822.97;5045704;28;20079;-70
2023/06/27 01:06:39;;;;;;;6.18;3.50;;;;;;;16.30;69.84;101820.28;5058610;28;20109;-69
2023/06/27 01:09:29;;;;;;;7.43;3.55;;;;;;;16.22;69.54;101810.91;5063778;28;20111;-70
2023/06/27 01:12:15;;;;;;;7.30;3.67;;;;;;;16.28;69.78;101819.47;5051694;28;20041;-69
2023/06/27 01:14:45;;;;;;;8.65;3.42;;;;;;;16.26;70.16;101813.34;5055734;28;20036;-70
2023/06/27 01:17:12;;;;;;;6.90;3.60;;;;;;;16.17;70.16;101809.34;5049627;28;20140;-70
2023/06/27 01:19:38;;;;;;;7.63;3.42;;;;;;;16.18;70.62;101815.63;5054369;28;20363;-70
2023/06/27 01:22:08;;;;;;;6.55;3.67;;;;;;;16.08;71.03;101814.41;5065461;28;20131;-69
2023/06/27 01:24:36;;;;;;;5.95;3.22;;;;;;;16.09;71.63;101814.34;5058474;28;20043;-70
2023/06/27 01:27:02;;;;;;;6.10;3.33;;;;;;;16.06;71.80;101821.72;5053925;28;20116;-69
2023/06/27 01:29:29;;;;;;;8.50;3.63;;;;;;;16.03;71.41;101819.19;5062898;28;20516;-70
2023/06/27 01:32:07;;;;;;;5.95;3.53;;;;;;;16.03;71.11;101819.19;5052601;28;20327;-70
2023/06/27 01:34:42;;;;;;;7.53;4.07;;;;;;;15.96;72.14;101807.94;5062483;28;20109;-69
2023/06/27 01:37:14;;;;;;;7.93;3.70;;;;;;;15.93;72.42;101814.38;5052739;28;20040;-71
2023/06/27 01:39:40;;;;;;;7.57;3.25;;;;;;;15.96;72.09;101815.13;5058705;28;20035;-70
2023/06/27 01:42:20;;;;;;;5.10;3.28;;;;;;;15.94;72.25;101817.91;5061979;28;20032;-71
2023/06/27 01:44:47;;;;;;;11.32;4.85;;;;;;;15.86;72.50;101815.66;5056940;28;20028;-71
2023/06/27 01:47:13;;;;;;;7.10;3.72;;;;;;;15.85;72.49;101813.94;5056948;28;20025;-70
2023/06/27 01:49:39;;;;;;;7.03;3.83;;;;;;;15.77;73.12;101808.16;5057739;28;20629;-70
2023/06/27 01:52:05;;;;;;;6.70;3.53;;;;;;;15.80;73.63;101812.47;5059508;28;20128;-70
2023/06/27 01:54:31;;;;;;;7.35;4.25;;;;;;;15.76;73.14;101817.16;5060948;28;20044;-70
2023/06/27 01:56:56;;;;;;;9.82;3.85;;;;;;;15.77;73.61;101816.19;5060171;28;20024;-71
2023/06/27 01:59:21;;;;;;;5.50;3.47;;;;;;;15.77;73.80;101813.50;5058496;28;20036;-70
2023/06/27 02:01:47;;;;;;;7.55;3.50;;;;;;;15.70;74.00;101814.81;5051097;28;20069;-70
2023/06/27 02:04:12;;;;;;;9.48;4.15;;;;;;;15.72;74.39;101804.88;5054452;28;20410;-70
2023/06/27 02:06:37;;;;;;;10.32;3.83;;;;;;;15.76;74.24;101805.53;5051270;28;20035;-69
2023/06/27 02:09:04;;;;;;;7.10;3.70;;;;;;;15.78;74.22;101806.31;5058850;28;20062;-71
2023/06/27 02:11:30;;;;;;;7.43;3.60;;;;;;;15.77;74.64;101805.47;5055876;28;20029;-69
2023/06/27 02:13:55;;;;;;;7.30;3.72;;;;;;;15.76;74.65;101800.16;5050474;28;20024;-70
2023/06/27 02:16:21;;;;;;;8.27;3.85;;;;;;;15.74;74.93;101805.63;5056404;28;20148;-71
2023/06/27 02:18:46;;;;;;;6.53;3.70;;;;;;;15.72;75.23;101799.50;5057632;28;20029;-70
2023/06/27 02:21:11;;;;;;;7.95;3.75;;;;;;;15.69;75.49;101803.22;5052902;28;20051;-70
2023/06/27 02:23:37;;;;;;;7.63;3.55;;;;;;;15.68;75.12;101800.63;5061069;28;20059;-70
2023/06/27 02:26:03;;;;;;;9.25;3.30;;;;;;;15.73;75.58;101801.22;5063815;28;20038;-69
2023/06/27 02:28:29;;;;;;;9.18;3.85;;;;;;;15.76;76.01;101800.16;5059712;28;20032;-71
2023/06/27 02:30:54;;;;;;;6.78;3.72;;;;;;;15.73;75.56;101795.00;5054748;28;20033;-69
2023/06/27 02:33:20;;;;;;;8.77;4.00;;;;;;;15.77;76.21;101793.88;5057893;28;20059;-70
2023/06/27 02:35:45;;;;;;;10.57;4.00;;;;;;;15.78;75.51;101793.75;5059763;28;20037;-70
2023/06/27 02:38:11;;;;;;;8.15;3.88;;;;;;;15.78;75.19;101795.59;5054614;28;20415;-70
2023/06/27 02:40:36;;;;;;;7.60;3.45;;;;;;;15.76;74.89;101784.94;5052920;28;20387;-71
2023/06/27 02:43:01;;;;;;;10.23;3.90;;;;;;;15.78;75.37;101791.09;5053432;28;20024;-69
2023/06/27 02:45:27;;;;;;;8.48;3.90;;;;;;;15.75;75.83;101795.75;5060916;28;20039;-71
2023/06/27 02:47:52;;;;;;;7.78;3.92;;;;;;;15.76;75.86;101787.63;5058495;28;20021;-71
2023/06/27 02:50:17;;;;;;;8.40;3.92;;;;;;;15.68;76.13;101781.84;5057173;28;20029;-70
2023/06/27 02:52:43;;;;;;;10.80;4.40;;;;;;;15.77;76.35;101788.50;5059299;28;20443;-70
2023/06/27 02:55:08;;;;;;;7.13;3.58;;;;;;;15.72;76.68;101799.50;5059441;28;20119;-71
2023/06/27 02:57:34;;;;;;;10.95;4.53;;;;;;;15.72;76.38;101794.13;5058043;28;20052;-70
2023/06/27 03:00:00;;;;;;;10.63;3.88;;;;;;;15.67;75.83;101780.97;5064040;28;20027;-71
2023/06/27 03:02:25;;;;;;;10.35;4.20;;;;;;;15.66;76.71;101787.28;5059529;28;20024;-69
2023/06/27 03:04:51;;;;;;;8.98;3.72;;;;;;;15.62;76.50;101792.88;5057774;28;20024;-71
2023/06/27 03:07:17;;;;;;;7.20;3.13;;;;;;;15.57;77.67;101794.97;5058780;28;20025;-69
2023/06/27 03:09:42;;;;;;;9.40;3.97;;;;;;;15.52;77.46;101799.72;5055332;28;20047;-71
2023/06/27 03:12:08;;;;;;;9.52;3.45;;;;;;;15.43;78.49;101803.81;5059088;28;20100;-71
2023/06/27 03:14:34;;;;;;;8.85;4.18;;;;;;;15.35;77.67;101798.84;5053261;28;20120;-69
2023/06/27 03:16:59;;;;;;;7.00;3.72;;;;;;;15.40;78.66;101803.97;5049273;28;20580;-71
2023/06/27 03:19:24;;;;;;;9.10;3.72;;;;;;;15.30;78.21;101798.25;5061485;28;20044;-71
2023/06/27 03:21:50;;;;;;;10.43;3.83;;;;;;;15.27;78.92;101808.28;5054155;28;20025;-69
2023/06/27 03:24:15;;;;;;;11.63;3.97;;;;;;;15.17;79.70;101803.44;5058982;28;20042;-70
2023/06/27 03:26:40;;;;;;;7.70;3.72;;;;;;;15.17;79.77;101802.53;5052686;28;20024;-69
2023/06/27 03:29:06;;;;;;;9.88;4.28;;;;;;;15.15;80.42;101802.63;5059572;28;20027;-70
2023/06/27 03:31:31;;;;;;;10.05;3.90;;;;;;;15.13;80.86;101795.59;5056353;28;20401;-71
2023/06/27 03:33:58;;;;;;;12.52;3.85;;;;;;;15.10;80.86;101793.97;5055129;28;20374;-69
2023/06/27 03:36:24;;;;;;;10.13;3.70;;;;;;;15.11;81.14;101795.69;5056095;28;20032;-70
2023/06/27 03:38:51;;;;;;;12.70;4.20;;;;;;;15.12;81.36;101799.25;5048622;28;20025;-71
2023/06/27 03:41:16;;;;;;;8.07;3.85;;;;;;;15.08;81.16;101803.03;5054908;28;20052;-70
2023/06/27 03:43:42;;;;;;;7.47;3.53;;;;;;;15.08;81.56;101806.59;5051672;28;20082;-70
2023/06/27 03:46:09;;;;;;;9.73;4.45;;;;;;;15.05;81.92;101809.47;5057305;28;20075;-70
2023/06/27 03:48:35;;;;;;;10.50;4.75;;;;;;;15.00;81.94;101792.72;5053148;28;20333;-71
2023/06/27 03:51:01;;;;;;;8.80;3.80;;;;;;;15.00;82.72;101805.28;5054649;28;20028;-68
2023/06/27 03:53:26;;;;;;;10.25;4.07;;;;;;;15.00;82.55;101800.78;5055630;28;20095;-70
2023/06/27 03:55:52;;;;;;;8.70;4.03;;;;;;;14.94;82.71;101803.81;5051253;28;20093;-71
2023/06/27 03:58:17;;;;;;;9.60;4.20;;;;;;;14.92;83.26;101811.03;5048451;28;20426;-70
2023/06/27 04:00:42;;;;;;;10.60;4.05;;;;;;;14.90;83.41;101805.78;5049090;28;20033;-71
2023/06/27 04:03:08;;;;;;;10.65;4.25;;;;;;;14.84;83.75;101806.13;5050268;28;20017;-71
2023/06/27 04:05:33;;;;;;;9.25;4.43;;;;;;;14.88;83.58;101810.38;5055237;28;20032;-71
2023/06/27 04:07:59;;;;;;;10.35;4.00;;;;;;;14.94;83.63;101814.53;5049408;28;20116;-71
2023/06/27 04:10:24;;;;;;;9.70;4.15;;;;;;;14.96;83.51;101815.28;5057545;28;20442;-69
2023/06/27 04:12:49;;;;;;;9.73;4.22;;;;;;;14.91;83.50;101802.13;5046957;28;20059;-71
2023/06/27 04:15:15;;;;;;;9.40;4.00;;;;;;;14.84;84.26;101808.81;5044651;28;20060;-71
2023/06/27 04:17:40;;;;;;;10.23;4.05;;;;;;;14.83;84.22;101811.53;5061367;28;20048;-71
2023/06/27 04:20:06;;;;;;;8.65;4.00;;;;;;;14.88;83.50;101802.31;5057274;28;20024;-71
2023/06/27 04:22:32;;;;;;;10.45;4.47;;;;;;;14.76;84.70;101807.47;5066002;28;20039;-70
2023/06/27 04:24:57;;;;;;;8.43;3.97;;;;;;;14.76;85.28;101808.34;5068052;28;20667;-72
2023/06/27 04:27:23;;;;;;;10.38;4.30;;;;;;;14.77;85.17;101810.06;5061411;28;20041;-71
2023/06/27 04:29:48;;;;;;;11.95;4.80;;;;;;;14.83;85.27;101809.72;5056311;28;20032;-71
2023/06/27 04:32:14;;;;;;;12.90;4.47;;;;;;;14.84;85.37;101807.91;5058398;28;20037;-69
2023/06/27 04:34:39;;;;;;;9.98;4.47;;;;;;;14.82;85.09;101802.63;5071526;28;20012;-69
2023/06/27 04:37:05;;;;;;;10.48;4.45;;;;;;;14.77;85.40;101812.75;5065827;28;20116;-71
2023/06/27 04:39:33;;;;;;;11.88;4.45;;;;;;;14.78;85.73;101809.09;5062845;28;20143;-69
2023/06/27 04:41:58;;;;;;;10.23;4.60;;;;;;;14.79;85.87;101812.66;5072358;28;20021;-70
2023/06/27 04:44:24;;;;;;;9.02;4.18;;;;;;;14.72;85.93;101812.13;5062156;28;20040;-69
2023/06/27 04:46:50;;;;;;;10.85;4.15;;;;;;;14.67;86.65;101811.47;5065486;28;20032;-70
2023/06/27 04:49:15;;;;;;;12.98;4.32;;;;;;;14.73;86.74;101808.50;5067009;28;20035;-70
2023/06/27 04:51:41;;;;;;;12.55;4.70;;;;;;;14.73;86.64;101824.56;5067641;28;20054;-71
2023/06/27 04:54:06;;;;;;;10.52;4.38;;;;;;;14.74;85.49;101820.94;5057154;28;20060;-69
2023/06/27 04:56:33;;;;;;;11.48;4.78;;;;;;;14.77;86.83;101818.09;5061107;28;20025;-69
2023/06/27 04:58:59;;;;;;;11.25;4.45;;;;;;;14.75;87.12;101817.31;5054511;28;20055;-70
2023/06/27 05:01:24;;;;;;;9.07;4.43;;;;;;;14.81;86.53;101816.13;5053069;28;20122;-69
2023/06/27 05:03:50;;;;;;;8.80;4.60;;;;;;;14.84;87.20;101816.84;5056087;28;20104;-69
2023/06/27 05:06:15;;;;;;;9.55;4.50;;;;;;;14.90;86.74;101816.50;5061224;28;20388;-69
2023/06/27 05:08:41;;;;;;;12.38;4.97;;;;;;;14.92;87.36;101811.94;5057590;28;20025;-70
2023/06/27 05:11:06;;;;;;;11.88;5.43;;;;;;;15.04;86.52;101812.19;5056414;28;20040;-70
2023/06/27 05:13:32;;;;;;;10.30;5.05;;;;;;;15.15;86.50;101812.50;5054144;28;20558;-68
2023/06/27 05:15:57;;;;;;;11.57;5.00;;;;;;;15.20;85.88;101823.81;5063060;28;20509;-69
2023/06/27 05:18:24;;;;;;;8.40;4.90;;;;;;;15.26;86.21;101828.88;5061422;28;20403;-70
2023/06/27 05:20:49;;;;;;;11.95;5.38;;;;;;;15.34;86.26;101826.63;5056748;28;20029;-70
2023/06/27 05:23:15;;;;;;;14.25;5.28;;;;;;;15.43;86.14;101828.81;5060848;28;20036;-70
2023/06/27 05:25:40;;;;;;;14.68;5.45;;;;;;;15.51;86.04;101816.75;5049909;28;20087;-70
2023/06/27 05:28:05;;;;;;;10.73;4.93;;;;;;;15.60;85.11;101827.00;5054899;28;20565;-70
2023/06/27 05:30:32;;;;;;;13.82;5.40;;;;;;;15.65;85.56;101814.22;5054646;28;20059;-69
2023/06/27 05:32:58;;;;;;;11.98;5.63;;;;;;;15.82;85.44;101816.78;5056946;28;20032;-71
2023/06/27 05:35:23;;;;;;;10.65;5.45;;;;;;;15.92;83.79;101817.13;5065663;28;20033;-69
2023/06/27 05:37:49;;;;;;;12.98;5.38;;;;;;;16.10;83.83;101823.25;5062181;28;20538;-71
2023/06/27 05:40:15;;;;;;;12.63;5.57;;;;;;;16.22;83.84;101817.19;5050788;28;20475;-70
2023/06/27 05:42:40;;;;;;;13.32;5.43;;;;;;;16.35;83.70;101815.47;5062830;28;20315;-71
2023/06/27 05:45:06;;;;;;;16.55;5.75;;;;;;;16.44;83.36;101820.31;5054998;28;20035;-70
2023/06/27 05:47:32;;;;;;;11.13;5.55;;;;;;;16.51;83.03;101817.22;5056003;28;20440;-69
2023/06/27 05:49:57;;;;;;;11.20;5.18;;;;;;;16.65;82.28;101814.59;5051437;28;20032;-70
2023/06/27 05:52:23;;;;;;;13.52;5.75;;;;;;;16.77;81.26;101818.38;5050322;28;20027;-69
2023/06/27 05:54:50;;;;;;;14.98;5.50;;;;;;;16.96;81.71;101818.97;5049341;28;20491;-72
2023/06/27 05:57:15;;;;;;;11.20;5.30;;;;;;;17.17;81.05;101814.06;5054052;28;20021;-71
2023/06/27 05:59:40;;;;;;;13.38;5.35;;;;;;;17.34;80.57;101816.53;5052859;28;20467;-71
2023/06/27 06:02:06;;;;;;;14.82;5.75;;;;;;;17.55;79.84;101821.50;5055891;28;20039;-71
2023/06/27 06:04:31;;;;;;;11.02;5.72;;;;;;;17.64;78.49;101811.03;5049048;28;20032;-69
2023/06/27 06:06:58;;;;;;;11.43;5.78;;;;;;;17.84;79.19;101816.94;5056134;28;20024;-69
2023/06/27 06:09:24;;;;;;;16.13;6.40;;;;;;;17.91;77.40;101816.44;5058933;28;20024;-69
2023/06/27 06:11:50;;;;;;;15.02;6.15;;;;;;;17.95;78.01;101816.25;5056904;28;20028;-69
2023/06/27 06:14:15;;;;;;;16.20;5.70;;;;;;;18.02;77.54;101810.38;5054084;28;20502;-70
2023/06/27 06:16:41;;;;;;;16.10;5.90;;;;;;;18.09;77.17;101808.09;5058815;28;20494;-70
2023/06/27 06:19:07;;;;;;;11.23;5.78;;;;;;;18.25;76.67;101807.94;5060350;28;20393;-69
2023/06/27 06:21:33;;;;;;;10.30;5.57;;;;;;;18.29;76.62;101804.06;5057375;28;20054;-69
2023/06/27 06:23:58;;;;;;;11.50;5.45;;;;;;;18.45;75.65;101807.44;5048798;28;20059;-69
2023/06/27 06:26:24;;;;;;;12.20;5.70;;;;;;;18.66;74.66;101810.47;5064831;28;20383;-70
2023/06/27 06:28:49;;;;;;;12.35;5.07;;;;;;;18.84;74.82;101811.91;5061702;28;20027;-69
2023/06/27 06:31:16;;;;;;;8.80;4.70;;;;;;;19.03;73.88;101813.34;5060260;28;20036;-70
2023/06/27 06:33:44;;;;;;;11.05;4.70;;;;;;;19.24;72.52;101821.72;5058651;28;20021;-70
2023/06/27 06:36:09;;;;;;;11.85;5.10;;;;;;;19.37;72.00;101822.56;5061352;28;20118;-70
2023/06/27 06:38:35;;;;;;;13.55;4.93;;;;;;;19.47;71.39;101823.59;5057240;28;20576;-70
2023/06/27 06:41:02;;;;;;;16.70;5.10;;;;;;;19.69;70.37;101822.06;5059805;28;20063;-68
2023/06/27 06:43:27;;;;;;;11.13;4.60;;;;;;;19.87;69.77;101829.69;5060686;28;20028;-70
2023/06/27 06:45:52;;;;;;;8.60;4.13;;;;;;;20.06;69.10;101828.28;5058933;28;20214;-69
2023/06/27 06:48:21;;;;;;;10.90;5.40;;;;;;;20.15;67.30;101833.88;5058503;28;20421;-71
2023/06/27 06:50:49;;;;;;;10.15;4.40;;;;;;;20.11;66.15;101842.34;5058630;28;20024;-71
2023/06/27 06:53:14;;;;;;;9.35;4.55;;;;;;;20.28;67.02;101839.22;5056356;28;20017;-71
2023/06/27 06:55:40;;;;;;;10.48;4.45;;;;;;;20.42;66.95;101837.28;5057118;28;20633;-69
2023/06/27 06:58:05;;;;;;;11.38;4.97;;;;;;;20.52;66.29;101835.63;5057411;28;20340;-70
2023/06/27 07:00:33;;;;;;;11.30;5.13;;;;;;;20.53;65.46;101834.66;5054549;28;20038;-70
2023/06/27 07:02:59;;;;;;;9.20;4.57;;;;;;;20.65;66.20;101836.44;5058475;28;20032;-72
2023/06/27 07:05:24;;;;;;;13.57;4.90;;;;;;;20.74;64.89;101834.84;5070876;28;20020;-71
2023/06/27 07:07:50;;;;;;;10.98;4.20;;;;;;;20.88;64.41;101843.59;5069590;28;20032;-70
2023/06/27 07:10:15;;;;;;;11.80;4.70;;;;;;;21.07;63.67;101843.00;5056094;28;20037;-72
2023/06/27 07:12:40;;;;;;;11.00;4.57;;;;;;;21.06;62.43;101835.00;5071218;28;20081;-73
2023/06/27 07:15:07;;;;;;;11.65;4.40;;;;;;;21.36;61.56;101835.28;5066858;28;20137;-69
2023/06/27 07:17:32;;;;;;;7.90;3.97;;;;;;;21.52;60.23;101837.59;5052481;28;20280;-71
2023/06/27 07:19:58;;;;;;;9.52;4.35;;;;;;;21.48;60.53;101840.69;5050819;28;20155;-73
2023/06/27 07:22:24;;;;;;;10.93;3.97;;;;;;;21.55;60.81;101841.91;5067220;28;20290;-74
2023/06/27 07:24:49;;;;;;;12.18;4.72;;;;;;;21.65;59.67;101853.72;5055648;28;20035;-71
2023/06/27 07:27:15;;;;;;;8.50;3.95;;;;;;;21.79;58.04;101837.19;5059413;28;20024;-71
2023/06/27 07:29:40;;;;;;;8.82;4.00;;;;;;;21.92;58.25;101847.03;5068225;28;20024;-72
2023/06/27 07:32:07;;;;;;;11.60;4.13;;;;;;;22.43;58.24;101838.22;5058975;28;20028;-70
2023/06/27 07:34:33;;;;;;;7.25;3.55;;;;;;;22.53;56.78;101840.03;5059147;28;20028;-71
2023/06/27 07:36:59;;;;;;;10.85;3.80;;;;;;;23.09;56.44;101834.25;5063515;28;20163;-71
2023/06/27 07:39:24;;;;;;;9.32;3.55;;;;;;;23.74;53.30;101834.78;5065208;28;20141;-72
2023/06/27 07:41:50;;;;;;;8.20;3.22;;;;;;;24.19;49.66;101834.28;5053378;28;20334;-70
2023/06/27 07:44:15;;;;;;;6.65;3.00;;;;;;;25.00;48.16;101832.06;5056140;28;20148;-73
2023/06/27 07:46:41;;;;;;;7.07;3.15;;;;;;;25.25;45.07;101827.00;5056135;28;20034;-73
2023/06/27 07:49:07;;;;;;;7.55;2.90;;;;;;;24.98;44.25;101833.22;5059850;28;20157;-73
2023/06/27 07:51:33;;;;;;;8.93;3.10;;;;;;;24.91;44.06;101830.19;5056139;28;20452;-72
2023/06/27 07:54:00;;;;;;;6.30;2.63;;;;;;;24.77;43.87;101828.81;5065989;28;20020;-72
2023/06/27 07:56:26;;;;;;;7.65;2.65;;;;;;;24.79;44.95;101823.25;5069989;28;20033;-72
2023/06/27 07:58:51;;;;;;;7.00;2.65;;;;;;;25.09;44.73;101830.34;5060131;28;20436;-72
2023/06/27 08:01:17;;;;;;;10.32;3.03;;;;;;;24.48;43.49;101836.16;5058873;28;20636;-70
2023/06/27 08:03:42;;;;;;;8.70;2.42;;;;;;;23.75;45.27;101835.69;5058748;28;20035;-74
2023/06/27 08:06:08;;;;;;;5.95;2.95;;;;;;;23.20;46.50;101825.19;5066915;28;20036;-71
2023/06/27 08:08:36;;;;;;;5.35;2.10;;;;;;;22.91;46.76;101835.00;5055427;28;20025;-70
2023/06/27 08:11:01;;;;;;;5.18;2.33;;;;;;;23.28;46.88;101838.94;5060253;28;20036;-70
2023/06/27 08:13:27;;;;;;;9.88;2.53;;;;;;;23.77;46.07;101836.38;5057291;28;20033;-71
2023/06/27 08:15:52;;;;;;;4.63;2.58;;;;;;;23.73;45.61;101841.22;5058038;28;20020;-70
2023/06/27 08:18:18;;;;;;;5.70;2.42;;;;;;;23.60;46.46;101830.59;5057351;28;20045;-70
2023/06/27 08:20:44;;;;;;;6.30;2.22;;;;;;;23.75;45.77;101833.81;5056618;28;20507;-70
2023/06/27 08:23:10;;;;;;;6.03;2.15;;;;;;;23.60;43.80;101830.59;5049309;28;20032;-70
2023/06/27 08:25:35;;;;;;;4.70;2.10;;;;;;;23.61;43.56;101826.00;5049055;28;20024;-71
2023/06/27 08:28:01;;;;;;;6.68;2.70;;;;;;;23.64;43.04;101835.75;5057188;28;20556;-69
2023/06/27 08:30:27;;;;;;;3.45;1.95;;;;;;;23.81;43.06;101827.81;5051578;28;20129;-70
2023/06/27 08:32:54;;;;;;;5.75;2.40;;;;;;;24.29;42.22;101828.88;5052412;28;20592;-71
2023/06/27 08:35:20;;;;;;;6.35;2.35;;;;;;;24.52;41.73;101832.16;5053757;28;20067;-72
2023/06/27 08:37:46;;;;;;;5.65;2.35;;;;;;;24.28;41.36;101824.41;5056479;28;20028;-71
2023/06/27 08:40:19;;;;;;;3.47;1.52;;;;;;;24.43;41.38;101833.88;5059995;28;20043;-72
2023/06/27 08:42:44;;;;;;;5.43;2.05;;;;;;;24.50;40.53;101826.88;5054803;28;20021;-70
2023/06/27 08:45:10;;;;;;;5.65;1.92;;;;;;;24.35;40.30;101826.41;5051952;28;20028;-69
2023/06/27 08:47:39;;;;;;;3.45;1.70;;;;;;;24.44;40.86;101826.56;5057082;28;20087;-69
2023/06/27 08:50:08;;;;;;;2.30;1.20;;;;;;;24.30;39.45;101816.97;5056968;28;20037;-72
2023/06/27 08:52:39;;;;;;;3.53;1.38;;;;;;;24.27;38.63;101819.97;5060457;28;20036;-71
2023/06/27 08:55:12;;;;;;;3.38;1.50;;;;;;;24.25;38.92;101814.69;5052971;28;20085;-73
2023/06/27 08:57:37;;;;;;;3.72;1.30;;;;;;;24.85;40.00;101822.63;5057394;28;20406;-70
2023/06/27 09:00:12;;;;;;;4.63;1.40;;;;;;;25.44;35.97;101812.41;5055694;28;20074;-70
2023/06/27 09:02:38;;;;;;;3.65;1.38;;;;;;;25.40;36.69;101819.16;5058796;28;20035;-72
2023/06/27 09:05:05;;;;;;;4.82;1.50;;;;;;;24.92;38.41;101809.31;5055166;28;20040;-71
2023/06/27 09:07:33;;;;;;;5.05;2.10;;;;;;;25.44;38.02;101805.06;5054476;28;20152;-69
2023/06/27 09:09:59;;;;;;;3.78;2.20;;;;;;;25.56;37.70;101808.47;5057260;28;20086;-71
2023/06/27 09:12:27;;;;;;;2.92;1.58;;;;;;;25.31;37.67;101810.88;5054120;28;20048;-70
2023/06/27 09:14:53;;;;;;;7.88;1.63;;;;;;;24.78;39.04;101814.19;5053491;28;20470;-69
2023/06/27 09:17:19;;;;;;;4.20;1.48;;;;;;;24.32;40.28;101810.38;5061530;28;20382;-71
2023/06/27 09:19:44;;;;;;;7.85;2.08;;;;;;;23.54;41.54;101822.16;5058075;28;20518;-73
2023/06/27 09:22:10;;;;;;;6.80;2.00;;;;;;;22.95;42.22;101812.91;5060360;28;20020;-72
2023/06/27 09:24:40;;;;;;;4.90;1.80;;;;;;;22.46;42.86;101816.28;5073174;28;20077;-70
2023/06/27 09:27:06;;;;;;;8.00;2.45;;;;;;;22.24;44.64;101812.69;5058919;28;20028;-70
2023/06/27 09:29:32;;;;;;;7.82;2.40;;;;;;;21.99;45.21;101816.56;5060791;28;20051;-71
2023/06/27 09:32:08;;;;;;;8.93;2.03;;;;;;;21.98;46.16;101817.53;5065277;28;20482;-72
2023/06/27 09:34:37;;;;;;;4.63;2.08;;;;;;;22.02;45.89;101815.44;5075533;28;20135;-69
2023/06/27 09:37:03;;;;;;;7.13;2.50;;;;;;;22.02;46.14;101821.72;5077002;28;20024;-70
2023/06/27 09:39:28;;;;;;;5.32;1.98;;;;;;;22.25;45.88;101810.84;5072785;28;20434;-72
2023/06/27 09:41:54;;;;;;;9.13;2.88;;;;;;;22.67;45.07;101816.28;5073209;28;20044;-69
2023/06/27 09:44:26;;;;;;;7.68;2.20;;;;;;;23.19;44.43;101825.28;5076112;28;20051;-72
2023/06/27 09:46:55;;;;;;;7.20;2.10;;;;;;;24.85;41.06;101825.38;5066565;28;20032;-70
2023/06/27 09:49:22;;;;;;;8.05;2.00;;;;;;;26.49;36.46;101814.53;5078569;28;20126;-72
2023/06/27 09:51:52;;;;;;;4.45;1.60;;;;;;;26.50;35.84;101818.97;5064812;28;20036;-72
2023/06/27 09:54:22;;;;;;;3.97;1.55;;;;;;;26.24;37.39;101819.75;5063729;28;20028;-71
2023/06/27 09:56:51;;;;;;;21.75;2.50;;;;;;;27.08;36.70;101823.81;5058462;28;20108;-70
2023/06/27 09:59:20;;;;;;;4.70;1.67;;;;;;;28.13;34.11;101827.97;5058355;28;20530;-72
2023/06/27 10:01:45;;;;;;;5.22;1.60;;;;;;;28.05;33.38;101817.91;5057806;28;20036;-71
2023/06/27 10:04:11;;;;;;;4.03;1.80;;;;;;;27.25;33.98;101819.31;5051341;28;20029;-71
2023/06/27 10:06:37;;;;;;;4.32;1.40;;;;;;;27.22;34.39;101834.19;5058133;28;20082;-72
2023/06/27 10:09:03;;;;;;;4.53;1.33;;;;;;;27.72;32.87;101821.56;5057339;28;20633;-71
2023/06/27 10:11:29;;;;;;;4.18;1.27;;;;;;;27.92;31.61;101817.50;5056308;28;20029;-70
2023/06/27 10:13:54;;;;;;;3.03;1.63;;;;;;;27.91;31.67;101821.28;5050903;28;20479;-71
2023/06/27 10:16:20;;;;;;;7.95;1.88;;;;;;;28.11;32.08;101829.19;5055860;28;20036;-71
2023/06/27 10:18:49;;;;;;;6.85;1.70;;;;;;;30.14;29.04;101826.94;5060029;28;20032;-73
2023/06/27 10:21:16;;;;;;;3.63;1.00;;;;;;;31.30;26.40;101826.56;5060265;28;20036;-70
2023/06/27 10:23:46;;;;;;;1.60;1.25;;;;;;;31.10;27.25;101823.53;5061787;28;20024;-72
2023/06/27 10:26:12;;;;;;;3.95;1.20;;;;;;;30.47;27.51;101831.19;5060913;28;20036;-71
2023/06/27 10:28:37;;;;;;;2.08;1.20;;;;;;;30.12;28.02;101843.59;5058112;28;20024;-70
2023/06/27 10:31:04;;;;;;;4.57;1.40;;;;;;;28.86;28.71;101829.03;5065358;28;20078;-70
2023/06/27 10:33:32;;;;;;;6.90;1.50;;;;;;;28.24;30.77;101824.91;5062997;28;20032;-73
2023/06/27 10:36:05;;;;;;;4.93;1.50;;;;;;;28.27;30.19;101829.22;5050329;28;20150;-73
2023/06/27 10:38:38;;;;;;;2.13;1.35;;;;;;;29.62;29.34;101838.59;5064888;28;20081;-69
2023/06/27 10:41:06;;;;;;;2.92;1.50;;;;;;;31.35;27.51;101831.50;5065810;28;20112;-71
2023/06/27 10:43:37;;;;;;;1.63;1.30;;;;;;;31.69;26.42;101833.66;5060338;28;20028;-73
2023/06/27 10:46:07;;;;;;;4.25;1.48;;;;;;;29.83;27.97;101838.81;5049469;28;20471;-72
2023/06/27 10:48:54;;;;;;;3.83;1.42;;;;;;;28.20;29.91;101826.28;5060301;28;21011;-73
2023/06/27 10:51:32;;;;;;;3.58;1.33;;;;;;;27.28;31.42;101822.59;5046871;28;20075;-71
2023/06/27 10:54:07;;;;;;;2.70;1.20;;;;;;;27.48;32.40;101814.13;5049407;28;20501;-72
2023/06/27 10:56:34;;;;;;;3.97;1.17;;;;;;;29.39;28.24;101822.91;5053615;28;20098;-71
2023/06/27 10:59:02;;;;;;;1.95;1.05;;;;;;;30.93;25.79;101820.09;5059373;28;20433;-72
2023/06/27 11:01:29;;;;;;;4.15;1.17;;;;;;;30.93;25.13;101820.09;5064035;28;20036;-71
2023/06/27 11:03:57;;;;;;;2.97;1.13;;;;;;;31.15;25.17;101817.47;5049453;28;20507;-71
2023/06/27 11:06:39;;;;;;;7.13;1.60;;;;;;;31.56;25.15;101809.56;5059866;28;20028;-71
2023/06/27 11:09:06;;;;;;;4.15;1.30;;;;;;;32.25;24.08;101811.81;5062243;28;20030;-70
2023/06/27 11:11:31;;;;;;;2.92;0.75;;;;;;;33.13;22.03;101806.81;5050877;28;20025;-70
2023/06/27 11:14:05;;;;;;;3.28;1.00;;;;;;;33.53;22.29;101813.41;5044349;28;20024;-70
2023/06/27 11:16:33;;;;;;;5.45;1.00;;;;;;;31.80;23.04;101826.78;5062223;28;20053;-71
2023/06/27 11:18:59;;;;;;;2.05;1.00;;;;;;;31.70;23.65;101818.84;5064001;28;20033;-72